sensor_id;sensor_type;location;lat;lon;timestamp;temperature;humidity
24254;DHT22;12381;51.152;4.172;2022-10-23T00:00:36;15.90;99.90
24254;DHT22;12381;51.152;4.172;2022-10-23T00:03:06;15.90;99.90
24254;DHT22;12381;51.152;4.172;2022-10-23T00:05:37;16.00;99.90
24254;DHT22;12381;51.152;4.172;2022-10-23T00:08:03;16.00;99.90
24254;DHT22;12381;51.152;4.172;2022-10-23T00:10:28;16.00;99.90
24254;DHT22;12381;51.152;4.172;2022-10-23T00:15:25;15.90;99.90
24254;DHT22;12381;51.152;4.172;2022-10-23T00:17:52;15.90;99.90
24254;DHT22;12381;51.152;4.172;2022-10-23T00:20:18;15.90;99.90
24254;DHT22;12381;51.152;4.172;2022-10-23T00:22:43;16.00;99.90
24254;DHT22;12381;51.152;4.172;2022-10-23T00:25:09;16.00;99.90
24254;DHT22;12381;51.152;4.172;2022-10-23T00:27:35;16.10;99.90
24254;DHT22;12381;51.152;4.172;2022-10-23T00:30:03;16.10;99.90
24254;DHT22;12381;51.152;4.172;2022-10-23T00:32:29;16.10;99.90
24254;DHT22;12381;51.152;4.172;2022-10-23T00:34:54;16.10;99.90
24254;DHT22;12381;51.152;4.172;2022-10-23T00:37:20;16.10;99.90
24254;DHT22;12381;51.152;4.172;2022-10-23T00:39:46;16.10;99.90
24254;DHT22;12381;51.152;4.172;2022-10-23T00:42:19;16.00;99.90
24254;DHT22;12381;51.152;4.172;2022-10-23T00:47:11;16.00;99.90
24254;DHT22;12381;51.152;4.172;2022-10-23T00:49:38;16.00;99.90
24254;DHT22;12381;51.152;4.172;2022-10-23T00:52:07;16.00;99.90
24254;DHT22;12381;51.152;4.172;2022-10-23T00:54:39;16.10;99.90
24254;DHT22;12381;51.152;4.172;2022-10-23T00:57:11;16.00;99.90
24254;DHT22;12381;51.152;4.172;2022-10-23T00:59:37;16.10;99.90
24254;DHT22;12381;51.152;4.172;2022-10-23T01:02:04;16.00;99.90
24254;DHT22;12381;51.152;4.172;2022-10-23T01:04:31;16.00;99.90
24254;DHT22;12381;51.152;4.172;2022-10-23T01:12:43;16.10;99.90
24254;DHT22;12381;51.152;4.172;2022-10-23T01:15:21;16.10;99.90
24254;DHT22;12381;51.152;4.172;2022-10-23T01:20:58;16.00;99.90
24254;DHT22;12381;51.152;4.172;2022-10-23T01:26:39;16.00;99.90
24254;DHT22;12381;51.152;4.172;2022-10-23T01:30:08;16.00;99.90
24254;DHT22;12381;51.152;4.172;2022-10-23T01:32:54;16.00;99.90
24254;DHT22;12381;51.152;4.172;2022-10-23T01:38:02;15.90;99.90
24254;DHT22;12381;51.152;4.172;2022-10-23T01:43:37;16.00;99.90
24254;DHT22;12381;51.152;4.172;2022-10-23T01:46:06;16.00;99.90
24254;DHT22;12381;51.152;4.172;2022-10-23T01:48:34;16.00;99.90
24254;DHT22;12381;51.152;4.172;2022-10-23T01:51:04;16.00;99.90
24254;DHT22;12381;51.152;4.172;2022-10-23T01:53:33;16.00;99.90
24254;DHT22;12381;51.152;4.172;2022-10-23T01:56:02;16.00;99.90
24254;DHT22;12381;51.152;4.172;2022-10-23T01:58:29;15.90;99.90
24254;DHT22;12381;51.152;4.172;2022-10-23T02:00:57;15.90;99.90
24254;DHT22;12381;51.152;4.172;2022-10-23T02:03:28;15.90;99.90
24254;DHT22;12381;51.152;4.172;2022-10-23T02:05:56;15.90;99.90
24254;DHT22;12381;51.152;4.172;2022-10-23T02:08:21;15.90;99.90
24254;DHT22;12381;51.152;4.172;2022-10-23T02:11:02;16.00;99.90
24254;DHT22;12381;51.152;4.172;2022-10-23T02:16:31;16.00;99.90
24254;DHT22;12381;51.152;4.172;2022-10-23T02:19:15;16.00;99.90
24254;DHT22;12381;51.152;4.172;2022-10-23T02:21:59;16.10;99.90
24254;DHT22;12381;51.152;4.172;2022-10-23T02:24:52;16.10;99.90
24254;DHT22;12381;51.152;4.172;2022-10-23T02:27:33;16.10;99.90
24254;DHT22;12381;51.152;4.172;2022-10-23T02:30:06;16.10;99.90
24254;DHT22;12381;51.152;4.172;2022-10-23T02:32:33;16.10;99.90
24254;DHT22;12381;51.152;4.172;2022-10-23T02:34:59;16.00;99.90
24254;DHT22;12381;51.152;4.172;2022-10-23T02:37:25;16.10;99.90
24254;DHT22;12381;51.152;4.172;2022-10-23T02:39:52;16.00;99.90
24254;DHT22;12381;51.152;4.172;2022-10-23T02:50:25;16.00;99.90
24254;DHT22;12381;51.152;4.172;2022-10-23T02:53:17;16.00;99.90
24254;DHT22;12381;51.152;4.172;2022-10-23T02:55:57;16.00;99.90
24254;DHT22;12381;51.152;4.172;2022-10-23T02:58:50;16.00;99.90
24254;DHT22;12381;51.152;4.172;2022-10-23T03:01:26;16.00;99.90
24254;DHT22;12381;51.152;4.172;2022-10-23T03:03:55;16.00;99.90
24254;DHT22;12381;51.152;4.172;2022-10-23T03:06:23;15.90;99.90
24254;DHT22;12381;51.152;4.172;2022-10-23T03:08:53;15.90;99.90
24254;DHT22;12381;51.152;4.172;2022-10-23T03:11:19;15.90;99.90
24254;DHT22;12381;51.152;4.172;2022-10-23T03:13:45;15.90;99.90
24254;DHT22;12381;51.152;4.172;2022-10-23T03:16:11;15.90;99.90
24254;DHT22;12381;51.152;4.172;2022-10-23T03:18:36;15.90;99.90
24254;DHT22;12381;51.152;4.172;2022-10-23T03:21:02;15.90;99.90
24254;DHT22;12381;51.152;4.172;2022-10-23T03:23:28;15.90;99.90
24254;DHT22;12381;51.152;4.172;2022-10-23T03:25:54;16.00;99.90
24254;DHT22;12381;51.152;4.172;2022-10-23T03:28:21;16.00;99.90
24254;DHT22;12381;51.152;4.172;2022-10-23T03:30:47;16.00;99.90
24254;DHT22;12381;51.152;4.172;2022-10-23T03:33:12;16.00;99.90
24254;DHT22;12381;51.152;4.172;2022-10-23T03:35:38;16.00;99.90
24254;DHT22;12381;51.152;4.172;2022-10-23T03:38:07;16.00;99.90
24254;DHT22;12381;51.152;4.172;2022-10-23T03:40:33;16.00;99.90
24254;DHT22;12381;51.152;4.172;2022-10-23T03:43:02;16.00;99.90
24254;DHT22;12381;51.152;4.172;2022-10-23T03:45:28;16.00;99.90
24254;DHT22;12381;51.152;4.172;2022-10-23T03:47:53;16.00;99.90
24254;DHT22;12381;51.152;4.172;2022-10-23T03:50:25;16.00;99.90
24254;DHT22;12381;51.152;4.172;2022-10-23T03:52:50;16.10;99.90
24254;DHT22;12381;51.152;4.172;2022-10-23T03:55:16;16.00;99.90
24254;DHT22;12381;51.152;4.172;2022-10-23T03:57:42;16.00;99.90
24254;DHT22;12381;51.152;4.172;2022-10-23T04:00:08;16.00;99.90
24254;DHT22;12381;51.152;4.172;2022-10-23T04:02:34;16.00;99.90
24254;DHT22;12381;51.152;4.172;2022-10-23T04:04:59;15.90;99.90
24254;DHT22;12381;51.152;4.172;2022-10-23T04:07:25;15.90;99.90
24254;DHT22;12381;51.152;4.172;2022-10-23T04:09:51;15.90;99.90
24254;DHT22;12381;51.152;4.172;2022-10-23T04:12:16;15.80;99.90
24254;DHT22;12381;51.152;4.172;2022-10-23T04:14:42;15.90;99.90
24254;DHT22;12381;51.152;4.172;2022-10-23T04:17:08;15.90;99.90
24254;DHT22;12381;51.152;4.172;2022-10-23T04:19:33;15.90;99.90
24254;DHT22;12381;51.152;4.172;2022-10-23T04:21:59;15.90;99.90
24254;DHT22;12381;51.152;4.172;2022-10-23T04:24:25;15.80;99.90
24254;DHT22;12381;51.152;4.172;2022-10-23T04:26:51;15.90;99.90
24254;DHT22;12381;51.152;4.172;2022-10-23T04:29:17;15.90;99.90
24254;DHT22;12381;51.152;4.172;2022-10-23T04:31:43;15.90;99.90
24254;DHT22;12381;51.152;4.172;2022-10-23T04:34:09;15.90;99.90
24254;DHT22;12381;51.152;4.172;2022-10-23T04:36:34;16.00;99.90
24254;DHT22;12381;51.152;4.172;2022-10-23T04:39:00;16.00;99.90
24254;DHT22;12381;51.152;4.172;2022-10-23T04:41:26;16.00;99.90
24254;DHT22;12381;51.152;4.172;2022-10-23T04:43:51;16.00;99.90
24254;DHT22;12381;51.152;4.172;2022-10-23T04:46:17;16.00;99.90
24254;DHT22;12381;51.152;4.172;2022-10-23T04:48:43;16.10;99.90
24254;DHT22;12381;51.152;4.172;2022-10-23T04:51:09;16.10;99.90
24254;DHT22;12381;51.152;4.172;2022-10-23T04:53:34;16.00;99.90
24254;DHT22;12381;51.152;4.172;2022-10-23T04:56:00;16.00;99.90
24254;DHT22;12381;51.152;4.172;2022-10-23T04:58:27;16.00;99.90
24254;DHT22;12381;51.152;4.172;2022-10-23T05:00:53;16.00;99.90
24254;DHT22;12381;51.152;4.172;2022-10-23T05:03:22;16.00;99.90
24254;DHT22;12381;51.152;4.172;2022-10-23T05:05:48;15.90;99.90
24254;DHT22;12381;51.152;4.172;2022-10-23T05:08:16;15.90;99.90
24254;DHT22;12381;51.152;4.172;2022-10-23T05:10:41;15.90;99.90
24254;DHT22;12381;51.152;4.172;2022-10-23T05:13:12;15.90;99.90
24254;DHT22;12381;51.152;4.172;2022-10-23T05:15:38;15.90;99.90
24254;DHT22;12381;51.152;4.172;2022-10-23T05:18:12;15.90;99.90
24254;DHT22;12381;51.152;4.172;2022-10-23T05:20:44;16.00;99.90
24254;DHT22;12381;51.152;4.172;2022-10-23T05:23:13;15.90;99.90
24254;DHT22;12381;51.152;4.172;2022-10-23T05:25:39;15.90;99.90
24254;DHT22;12381;51.152;4.172;2022-10-23T05:28:05;15.90;99.90
24254;DHT22;12381;51.152;4.172;2022-10-23T05:30:32;15.90;99.90
24254;DHT22;12381;51.152;4.172;2022-10-23T05:32:59;15.90;99.90
24254;DHT22;12381;51.152;4.172;2022-10-23T05:35:26;15.90;99.90
24254;DHT22;12381;51.152;4.172;2022-10-23T05:39:56;15.90;99.90
24254;DHT22;12381;51.152;4.172;2022-10-23T05:42:21;15.90;99.90
24254;DHT22;12381;51.152;4.172;2022-10-23T05:44:47;15.90;99.90
24254;DHT22;12381;51.152;4.172;2022-10-23T05:47:12;16.00;99.90
24254;DHT22;12381;51.152;4.172;2022-10-23T05:49:38;15.90;99.90
24254;DHT22;12381;51.152;4.172;2022-10-23T05:52:04;15.90;99.90
24254;DHT22;12381;51.152;4.172;2022-10-23T05:54:29;15.90;99.90
24254;DHT22;12381;51.152;4.172;2022-10-23T05:56:55;15.90;99.90
24254;DHT22;12381;51.152;4.172;2022-10-23T05:59:24;15.90;99.90
24254;DHT22;12381;51.152;4.172;2022-10-23T06:01:50;15.90;99.90
24254;DHT22;12381;51.152;4.172;2022-10-23T06:04:16;15.90;99.90
24254;DHT22;12381;51.152;4.172;2022-10-23T06:06:46;15.90;99.90
24254;DHT22;12381;51.152;4.172;2022-10-23T06:09:13;15.90;99.90
24254;DHT22;12381;51.152;4.172;2022-10-23T06:11:39;15.90;99.90
24254;DHT22;12381;51.152;4.172;2022-10-23T06:14:06;16.00;99.90
24254;DHT22;12381;51.152;4.172;2022-10-23T06:16:31;16.00;99.90
24254;DHT22;12381;51.152;4.172;2022-10-23T06:18:57;16.00;99.90
24254;DHT22;12381;51.152;4.172;2022-10-23T06:21:24;16.00;99.90
24254;DHT22;12381;51.152;4.172;2022-10-23T06:23:50;16.00;99.90
24254;DHT22;12381;51.152;4.172;2022-10-23T06:26:17;16.00;99.90
24254;DHT22;12381;51.152;4.172;2022-10-23T06:28:44;16.00;99.90
24254;DHT22;12381;51.152;4.172;2022-10-23T06:31:12;16.10;99.90
24254;DHT22;12381;51.152;4.172;2022-10-23T06:33:38;16.00;99.90
24254;DHT22;12381;51.152;4.172;2022-10-23T06:36:04;16.10;99.90
24254;DHT22;12381;51.152;4.172;2022-10-23T06:38:31;16.10;99.90
24254;DHT22;12381;51.152;4.172;2022-10-23T06:41:02;16.10;99.90
24254;DHT22;12381;51.152;4.172;2022-10-23T06:43:28;16.10;99.90
24254;DHT22;12381;51.152;4.172;2022-10-23T06:45:54;16.00;99.90
24254;DHT22;12381;51.152;4.172;2022-10-23T06:48:19;16.10;99.90
24254;DHT22;12381;51.152;4.172;2022-10-23T06:50:45;16.10;99.90
24254;DHT22;12381;51.152;4.172;2022-10-23T06:53:14;16.10;99.90
24254;DHT22;12381;51.152;4.172;2022-10-23T06:55:39;16.10;99.90
24254;DHT22;12381;51.152;4.172;2022-10-23T06:58:08;16.10;99.90
24254;DHT22;12381;51.152;4.172;2022-10-23T07:00:38;16.10;99.90
24254;DHT22;12381;51.152;4.172;2022-10-23T07:03:04;16.20;99.90
24254;DHT22;12381;51.152;4.172;2022-10-23T07:05:31;16.20;99.90
24254;DHT22;12381;51.152;4.172;2022-10-23T07:07:57;16.20;99.90
24254;DHT22;12381;51.152;4.172;2022-10-23T07:10:23;16.20;99.90
24254;DHT22;12381;51.152;4.172;2022-10-23T07:12:48;16.20;99.90
24254;DHT22;12381;51.152;4.172;2022-10-23T07:15:15;16.20;99.90
24254;DHT22;12381;51.152;4.172;2022-10-23T07:17:40;16.30;99.90
24254;DHT22;12381;51.152;4.172;2022-10-23T07:20:06;16.30;99.90
24254;DHT22;12381;51.152;4.172;2022-10-23T07:22:32;16.30;99.90
24254;DHT22;12381;51.152;4.172;2022-10-23T07:24:58;16.30;99.90
24254;DHT22;12381;51.152;4.172;2022-10-23T07:27:24;16.30;99.90
24254;DHT22;12381;51.152;4.172;2022-10-23T07:32:21;16.30;99.90
24254;DHT22;12381;51.152;4.172;2022-10-23T07:34:48;16.40;99.90
24254;DHT22;12381;51.152;4.172;2022-10-23T07:37:13;16.40;99.90
24254;DHT22;12381;51.152;4.172;2022-10-23T07:39:39;16.40;99.90
24254;DHT22;12381;51.152;4.172;2022-10-23T07:42:05;16.40;99.90
24254;DHT22;12381;51.152;4.172;2022-10-23T07:44:30;16.30;99.90
24254;DHT22;12381;51.152;4.172;2022-10-23T07:46:56;16.40;99.90
24254;DHT22;12381;51.152;4.172;2022-10-23T07:49:22;16.40;99.90
24254;DHT22;12381;51.152;4.172;2022-10-23T07:51:47;16.40;99.90
24254;DHT22;12381;51.152;4.172;2022-10-23T07:54:13;16.40;99.90
24254;DHT22;12381;51.152;4.172;2022-10-23T07:56:39;16.50;99.90
24254;DHT22;12381;51.152;4.172;2022-10-23T07:59:05;16.50;99.90
24254;DHT22;12381;51.152;4.172;2022-10-23T08:01:38;16.50;99.90
24254;DHT22;12381;51.152;4.172;2022-10-23T08:04:04;16.50;99.90
24254;DHT22;12381;51.152;4.172;2022-10-23T08:06:31;16.50;99.90
24254;DHT22;12381;51.152;4.172;2022-10-23T08:08:57;16.50;99.90
24254;DHT22;12381;51.152;4.172;2022-10-23T08:11:24;16.50;99.90
24254;DHT22;12381;51.152;4.172;2022-10-23T08:13:56;16.50;99.90
24254;DHT22;12381;51.152;4.172;2022-10-23T08:16:23;16.50;99.90
24254;DHT22;12381;51.152;4.172;2022-10-23T08:18:49;16.50;99.90
24254;DHT22;12381;51.152;4.172;2022-10-23T08:21:16;16.50;99.90
24254;DHT22;12381;51.152;4.172;2022-10-23T08:23:42;16.50;99.90
24254;DHT22;12381;51.152;4.172;2022-10-23T08:26:11;16.50;99.90
24254;DHT22;12381;51.152;4.172;2022-10-23T08:28:37;16.50;99.90
24254;DHT22;12381;51.152;4.172;2022-10-23T08:31:11;16.60;99.90
24254;DHT22;12381;51.152;4.172;2022-10-23T08:33:38;16.60;99.90
24254;DHT22;12381;51.152;4.172;2022-10-23T08:36:04;16.60;99.90
24254;DHT22;12381;51.152;4.172;2022-10-23T08:38:30;16.60;99.90
24254;DHT22;12381;51.152;4.172;2022-10-23T08:40:56;16.60;99.90
24254;DHT22;12381;51.152;4.172;2022-10-23T08:43:44;16.60;99.90
24254;DHT22;12381;51.152;4.172;2022-10-23T08:46:14;16.70;99.90
24254;DHT22;12381;51.152;4.172;2022-10-23T08:48:46;16.70;99.90
24254;DHT22;12381;51.152;4.172;2022-10-23T08:51:25;16.70;99.90
24254;DHT22;12381;51.152;4.172;2022-10-23T08:53:59;16.70;99.90
24254;DHT22;12381;51.152;4.172;2022-10-23T08:56:31;16.70;99.90
24254;DHT22;12381;51.152;4.172;2022-10-23T09:04:22;16.90;99.90
24254;DHT22;12381;51.152;4.172;2022-10-23T09:09:47;16.90;99.90
24254;DHT22;12381;51.152;4.172;2022-10-23T09:12:20;16.90;99.90
24254;DHT22;12381;51.152;4.172;2022-10-23T09:17:32;17.00;99.90
24254;DHT22;12381;51.152;4.172;2022-10-23T09:20:00;17.00;99.90
24254;DHT22;12381;51.152;4.172;2022-10-23T09:22:29;17.00;99.90
24254;DHT22;12381;51.152;4.172;2022-10-23T09:24:55;17.10;99.90
24254;DHT22;12381;51.152;4.172;2022-10-23T09:27:21;17.10;99.90
24254;DHT22;12381;51.152;4.172;2022-10-23T09:29:52;17.10;99.90
24254;DHT22;12381;51.152;4.172;2022-10-23T09:32:18;17.10;99.90
24254;DHT22;12381;51.152;4.172;2022-10-23T09:34:53;17.20;99.90
24254;DHT22;12381;51.152;4.172;2022-10-23T09:37:26;17.20;99.90
24254;DHT22;12381;51.152;4.172;2022-10-23T09:42:27;17.20;99.90
24254;DHT22;12381;51.152;4.172;2022-10-23T09:44:54;17.20;99.90
24254;DHT22;12381;51.152;4.172;2022-10-23T09:47:22;17.20;99.90
24254;DHT22;12381;51.152;4.172;2022-10-23T09:49:51;17.20;99.90
24254;DHT22;12381;51.152;4.172;2022-10-23T09:54:57;17.20;99.90
24254;DHT22;12381;51.152;4.172;2022-10-23T09:59:56;17.30;99.90
24254;DHT22;12381;51.152;4.172;2022-10-23T10:02:30;17.30;99.90
24254;DHT22;12381;51.152;4.172;2022-10-23T10:04:56;17.30;99.90
24254;DHT22;12381;51.152;4.172;2022-10-23T10:07:27;17.40;99.90
24254;DHT22;12381;51.152;4.172;2022-10-23T10:09:54;17.40;99.90
24254;DHT22;12381;51.152;4.172;2022-10-23T10:17:43;17.40;99.90
24254;DHT22;12381;51.152;4.172;2022-10-23T10:23:12;17.50;99.90
24254;DHT22;12381;51.152;4.172;2022-10-23T10:26:04;17.60;99.90
24254;DHT22;12381;51.152;4.172;2022-10-23T10:31:18;17.60;99.90
24254;DHT22;12381;51.152;4.172;2022-10-23T10:36:46;17.70;99.90
24254;DHT22;12381;51.152;4.172;2022-10-23T10:45:17;17.90;99.90
24254;DHT22;12381;51.152;4.172;2022-10-23T10:48:15;17.90;99.90
24254;DHT22;12381;51.152;4.172;2022-10-23T10:53:38;18.00;99.90
24254;DHT22;12381;51.152;4.172;2022-10-23T10:56:11;18.10;99.90
24254;DHT22;12381;51.152;4.172;2022-10-23T11:01:21;18.20;99.90
24254;DHT22;12381;51.152;4.172;2022-10-23T11:06:33;18.20;99.90
24254;DHT22;12381;51.152;4.172;2022-10-23T11:09:04;18.20;99.90
24254;DHT22;12381;51.152;4.172;2022-10-23T11:11:38;18.30;99.90
24254;DHT22;12381;51.152;4.172;2022-10-23T11:14:16;18.30;99.90
24254;DHT22;12381;51.152;4.172;2022-10-23T11:16:52;18.30;99.90
24254;DHT22;12381;51.152;4.172;2022-10-23T11:36:11;18.60;99.90
24254;DHT22;12381;51.152;4.172;2022-10-23T11:38:42;18.60;99.90
24254;DHT22;12381;51.152;4.172;2022-10-23T11:41:24;18.60;99.90
24254;DHT22;12381;51.152;4.172;2022-10-23T11:43:58;18.60;99.90
24254;DHT22;12381;51.152;4.172;2022-10-23T11:46:34;18.70;99.90
24254;DHT22;12381;51.152;4.172;2022-10-23T11:49:01;18.70;99.90
24254;DHT22;12381;51.152;4.172;2022-10-23T11:51:31;18.80;99.90
24254;DHT22;12381;51.152;4.172;2022-10-23T11:56:53;19.00;99.90
24254;DHT22;12381;51.152;4.172;2022-10-23T11:59:35;19.10;99.90
24254;DHT22;12381;51.152;4.172;2022-10-23T12:02:32;19.20;99.90
24254;DHT22;12381;51.152;4.172;2022-10-23T12:05:07;19.30;99.90
24254;DHT22;12381;51.152;4.172;2022-10-23T12:07:39;19.30;99.90
24254;DHT22;12381;51.152;4.172;2022-10-23T12:10:06;19.30;99.90
24254;DHT22;12381;51.152;4.172;2022-10-23T12:12:41;19.40;99.90
24254;DHT22;12381;51.152;4.172;2022-10-23T12:15:18;19.40;99.90
24254;DHT22;12381;51.152;4.172;2022-10-23T12:17:45;19.40;99.90
24254;DHT22;12381;51.152;4.172;2022-10-23T12:25:25;19.50;99.90
24254;DHT22;12381;51.152;4.172;2022-10-23T12:30:41;19.50;99.90
24254;DHT22;12381;51.152;4.172;2022-10-23T12:38:27;19.60;99.90
24254;DHT22;12381;51.152;4.172;2022-10-23T12:41:01;19.70;99.90
24254;DHT22;12381;51.152;4.172;2022-10-23T12:43:31;19.70;99.90
24254;DHT22;12381;51.152;4.172;2022-10-23T12:46:14;19.70;99.90
24254;DHT22;12381;51.152;4.172;2022-10-23T12:48:50;19.80;99.90
24254;DHT22;12381;51.152;4.172;2022-10-23T12:51:23;19.80;99.90
24254;DHT22;12381;51.152;4.172;2022-10-23T12:53:49;19.80;99.90
24254;DHT22;12381;51.152;4.172;2022-10-23T12:56:15;19.90;99.90
24254;DHT22;12381;51.152;4.172;2022-10-23T12:59:00;19.90;99.90
24254;DHT22;12381;51.152;4.172;2022-10-23T13:01:31;20.00;99.90
24254;DHT22;12381;51.152;4.172;2022-10-23T13:04:03;20.00;99.90
24254;DHT22;12381;51.152;4.172;2022-10-23T13:06:30;20.10;99.90
24254;DHT22;12381;51.152;4.172;2022-10-23T13:08:56;20.10;99.90
24254;DHT22;12381;51.152;4.172;2022-10-23T13:11:23;20.10;99.90
24254;DHT22;12381;51.152;4.172;2022-10-23T13:13:53;20.10;99.90
24254;DHT22;12381;51.152;4.172;2022-10-23T13:16:21;20.20;99.90
24254;DHT22;12381;51.152;4.172;2022-10-23T13:18:47;20.20;99.90
24254;DHT22;12381;51.152;4.172;2022-10-23T13:21:24;20.30;99.90
24254;DHT22;12381;51.152;4.172;2022-10-23T13:23:52;20.30;99.90
24254;DHT22;12381;51.152;4.172;2022-10-23T13:26:39;20.30;99.90
24254;DHT22;12381;51.152;4.172;2022-10-23T13:29:18;20.40;99.90
24254;DHT22;12381;51.152;4.172;2022-10-23T13:31:45;20.30;99.90
24254;DHT22;12381;51.152;4.172;2022-10-23T13:34:25;20.30;99.90
24254;DHT22;12381;51.152;4.172;2022-10-23T13:36:54;20.20;99.90
24254;DHT22;12381;51.152;4.172;2022-10-23T13:39:32;20.30;99.90
24254;DHT22;12381;51.152;4.172;2022-10-23T13:42:11;20.30;99.90
24254;DHT22;12381;51.152;4.172;2022-10-23T13:44:37;20.30;99.90
24254;DHT22;12381;51.152;4.172;2022-10-23T13:47:03;20.30;99.90
24254;DHT22;12381;51.152;4.172;2022-10-23T13:49:29;20.30;99.90
24254;DHT22;12381;51.152;4.172;2022-10-23T13:51:57;20.20;99.90
24254;DHT22;12381;51.152;4.172;2022-10-23T13:54:27;20.20;99.90
24254;DHT22;12381;51.152;4.172;2022-10-23T13:56:54;20.20;99.90
24254;DHT22;12381;51.152;4.172;2022-10-23T13:59:21;20.20;99.90
24254;DHT22;12381;51.152;4.172;2022-10-23T14:01:48;20.10;99.90
24254;DHT22;12381;51.152;4.172;2022-10-23T14:04:15;20.10;99.90
24254;DHT22;12381;51.152;4.172;2022-10-23T14:06:41;20.10;99.90
24254;DHT22;12381;51.152;4.172;2022-10-23T14:09:11;20.00;99.90
24254;DHT22;12381;51.152;4.172;2022-10-23T14:11:37;20.00;99.90
24254;DHT22;12381;51.152;4.172;2022-10-23T14:14:03;20.00;99.90
24254;DHT22;12381;51.152;4.172;2022-10-23T14:16:29;19.90;99.90
24254;DHT22;12381;51.152;4.172;2022-10-23T14:18:55;19.90;99.90
24254;DHT22;12381;51.152;4.172;2022-10-23T14:21:21;19.80;99.90
24254;DHT22;12381;51.152;4.172;2022-10-23T14:23:52;19.80;99.90
24254;DHT22;12381;51.152;4.172;2022-10-23T14:26:21;19.80;99.90
24254;DHT22;12381;51.152;4.172;2022-10-23T14:28:47;19.80;99.90
24254;DHT22;12381;51.152;4.172;2022-10-23T14:31:15;19.80;99.90
24254;DHT22;12381;51.152;4.172;2022-10-23T14:33:42;19.80;99.90
24254;DHT22;12381;51.152;4.172;2022-10-23T14:36:09;19.80;99.90
24254;DHT22;12381;51.152;4.172;2022-10-23T14:38:34;19.80;99.90
24254;DHT22;12381;51.152;4.172;2022-10-23T14:41:00;19.80;99.90
24254;DHT22;12381;51.152;4.172;2022-10-23T14:43:26;19.80;99.90
24254;DHT22;12381;51.152;4.172;2022-10-23T14:45:52;19.70;99.90
24254;DHT22;12381;51.152;4.172;2022-10-23T14:48:17;19.70;99.90
24254;DHT22;12381;51.152;4.172;2022-10-23T14:50:45;19.70;99.90
24254;DHT22;12381;51.152;4.172;2022-10-23T14:53:12;19.70;99.90
24254;DHT22;12381;51.152;4.172;2022-10-23T14:55:38;19.60;99.90
24254;DHT22;12381;51.152;4.172;2022-10-23T14:58:04;19.60;99.90
24254;DHT22;12381;51.152;4.172;2022-10-23T15:00:30;19.60;99.90
24254;DHT22;12381;51.152;4.172;2022-10-23T15:05:26;19.60;99.90
24254;DHT22;12381;51.152;4.172;2022-10-23T15:07:54;19.60;99.90
24254;DHT22;12381;51.152;4.172;2022-10-23T15:10:23;19.60;99.90
24254;DHT22;12381;51.152;4.172;2022-10-23T15:12:49;19.60;99.90
24254;DHT22;12381;51.152;4.172;2022-10-23T15:15:15;19.60;99.90
24254;DHT22;12381;51.152;4.172;2022-10-23T15:17:41;19.50;99.90
24254;DHT22;12381;51.152;4.172;2022-10-23T15:20:08;19.50;99.90
24254;DHT22;12381;51.152;4.172;2022-10-23T15:22:34;19.50;99.90
24254;DHT22;12381;51.152;4.172;2022-10-23T15:25:01;19.50;99.90
24254;DHT22;12381;51.152;4.172;2022-10-23T15:27:27;19.50;99.90
24254;DHT22;12381;51.152;4.172;2022-10-23T15:29:53;19.50;99.90
24254;DHT22;12381;51.152;4.172;2022-10-23T15:32:22;19.50;99.90
24254;DHT22;12381;51.152;4.172;2022-10-23T15:34:47;19.50;99.90
24254;DHT22;12381;51.152;4.172;2022-10-23T15:37:14;19.50;99.90
24254;DHT22;12381;51.152;4.172;2022-10-23T15:39:39;19.50;99.90
24254;DHT22;12381;51.152;4.172;2022-10-23T15:42:05;19.50;99.90
24254;DHT22;12381;51.152;4.172;2022-10-23T15:44:32;19.50;99.90
24254;DHT22;12381;51.152;4.172;2022-10-23T15:46:59;19.50;99.90
24254;DHT22;12381;51.152;4.172;2022-10-23T15:49:26;19.50;99.90
24254;DHT22;12381;51.152;4.172;2022-10-23T15:51:54;19.50;99.90
24254;DHT22;12381;51.152;4.172;2022-10-23T15:54:20;19.50;99.90
24254;DHT22;12381;51.152;4.172;2022-10-23T15:56:47;19.50;99.90
24254;DHT22;12381;51.152;4.172;2022-10-23T15:59:14;19.50;99.90
24254;DHT22;12381;51.152;4.172;2022-10-23T16:01:39;19.50;99.90
24254;DHT22;12381;51.152;4.172;2022-10-23T16:04:05;19.50;99.90
24254;DHT22;12381;51.152;4.172;2022-10-23T16:09:02;19.50;99.90
24254;DHT22;12381;51.152;4.172;2022-10-23T16:11:30;19.50;99.90
24254;DHT22;12381;51.152;4.172;2022-10-23T16:13:58;19.50;99.90
24254;DHT22;12381;51.152;4.172;2022-10-23T16:16:24;19.50;99.90
24254;DHT22;12381;51.152;4.172;2022-10-23T16:18:51;19.40;99.90
24254;DHT22;12381;51.152;4.172;2022-10-23T16:21:22;19.40;99.90
24254;DHT22;12381;51.152;4.172;2022-10-23T16:23:49;19.40;99.90
24254;DHT22;12381;51.152;4.172;2022-10-23T16:26:17;19.40;99.90
24254;DHT22;12381;51.152;4.172;2022-10-23T16:28:42;19.40;99.90
24254;DHT22;12381;51.152;4.172;2022-10-23T16:31:15;19.30;99.90
24254;DHT22;12381;51.152;4.172;2022-10-23T16:33:41;19.30;99.90
24254;DHT22;12381;51.152;4.172;2022-10-23T16:36:08;19.30;99.90
24254;DHT22;12381;51.152;4.172;2022-10-23T16:38:34;19.30;99.90
24254;DHT22;12381;51.152;4.172;2022-10-23T16:41:00;19.20;99.90
24254;DHT22;12381;51.152;4.172;2022-10-23T16:43:26;19.20;99.90
24254;DHT22;12381;51.152;4.172;2022-10-23T16:48:41;19.20;99.90
24254;DHT22;12381;51.152;4.172;2022-10-23T16:51:10;19.10;99.90
24254;DHT22;12381;51.152;4.172;2022-10-23T16:53:35;19.10;99.90
24254;DHT22;12381;51.152;4.172;2022-10-23T16:56:06;19.10;99.90
24254;DHT22;12381;51.152;4.172;2022-10-23T16:58:36;19.10;99.90
24254;DHT22;12381;51.152;4.172;2022-10-23T17:01:05;19.10;99.90
24254;DHT22;12381;51.152;4.172;2022-10-23T17:06:07;19.10;99.90
24254;DHT22;12381;51.152;4.172;2022-10-23T17:08:35;19.00;99.90
24254;DHT22;12381;51.152;4.172;2022-10-23T17:13:34;19.00;99.90
24254;DHT22;12381;51.152;4.172;2022-10-23T17:16:19;19.10;99.90
24254;DHT22;12381;51.152;4.172;2022-10-23T17:18:45;19.10;99.90
24254;DHT22;12381;51.152;4.172;2022-10-23T17:21:12;19.10;99.90
24254;DHT22;12381;51.152;4.172;2022-10-23T17:23:38;19.10;99.90
24254;DHT22;12381;51.152;4.172;2022-10-23T17:26:12;19.10;99.90
24254;DHT22;12381;51.152;4.172;2022-10-23T17:28:38;19.20;99.90
24254;DHT22;12381;51.152;4.172;2022-10-23T17:31:21;19.20;99.90
24254;DHT22;12381;51.152;4.172;2022-10-23T17:33:49;19.20;99.90
24254;DHT22;12381;51.152;4.172;2022-10-23T17:36:17;19.20;99.90
24254;DHT22;12381;51.152;4.172;2022-10-23T17:38:43;19.20;99.90
24254;DHT22;12381;51.152;4.172;2022-10-23T17:41:11;19.20;99.90
24254;DHT22;12381;51.152;4.172;2022-10-23T17:43:37;19.30;99.90
24254;DHT22;12381;51.152;4.172;2022-10-23T17:46:04;19.20;99.90
24254;DHT22;12381;51.152;4.172;2022-10-23T17:48:30;19.30;99.90
24254;DHT22;12381;51.152;4.172;2022-10-23T17:51:01;19.30;99.90